createdAt,value
2019-05-23T01:42:01.100Z,0.1
2019-05-23T01:44:01.327Z,0.2
2019-05-23T01:45:01.092Z,0.3
2019-05-23T01:47:01.093Z,0.4
2019-05-23T01:48:01.061Z,0.5
2019-05-23T01:50:01.243Z,0.6
2019-05-23T01:51:01.097Z,0.7
2019-05-23T01:53:01.169Z,0.8
2019-05-23T01:54:01.141Z,0.9
2019-05-23T01:55:01.274Z,1.0
2019-05-23T01:56:01.108Z,1.1
2019-05-23T01:57:01.098Z,1.2
2019-05-23T01:58:01.107Z,1.3
2019-05-23T02:00:09.587Z,1.5
2019-05-23T02:01:01.124Z,1.6
2019-05-23T02:02:01.149Z,1.7
2019-05-23T02:03:01.084Z,1.9
2019-05-23T02:04:01.107Z,2.1
2019-05-23T02:05:01.251Z,2.4
2019-05-23T02:06:01.107Z,2.7
2019-05-23T02:07:01.135Z,3.0
2019-05-23T02:08:01.105Z,3.4
2019-05-23T02:09:02.399Z,3.8
2019-05-23T02:10:01.293Z,4.2
2019-05-23T02:11:01.123Z,4.7
2019-05-23T02:12:06.103Z,5.2
2019-05-23T02:13:01.111Z,5.9
2019-05-23T02:14:01.751Z,6.6
2019-05-23T02:15:01.311Z,7.4
2019-05-23T02:16:01.105Z,8.3
2019-05-23T02:17:01.383Z,9.3
2019-05-23T02:18:01.106Z,10.4
2019-05-23T02:19:01.110Z,11.7
2019-05-23T02:20:01.261Z,13.1
2019-05-23T02:21:01.107Z,14.7
2019-05-23T02:23:01.211Z,16.7
2019-05-23T02:24:01.061Z,19.1
2019-05-23T02:25:01.252Z,21.7
2019-05-23T02:26:01.098Z,24.7
2019-05-23T02:27:01.094Z,28.1
2019-05-23T02:28:01.059Z,31.9
2019-05-23T02:29:01.114Z,36.1
2019-05-23T02:30:01.247Z,40.8
2019-05-23T02:31:01.092Z,46.1
2019-05-23T02:32:01.092Z,52.1
2019-05-23T02:33:01.092Z,58.9
2019-05-23T02:34:01.095Z,66.3
2019-05-23T02:35:01.260Z,74.8
2019-05-23T02:36:01.068Z,84.1
2019-05-23T02:37:01.100Z,94.5
2019-05-23T02:38:01.064Z,105.7
2019-05-23T02:39:01.097Z,118.1
2019-05-23T02:40:01.261Z,131.9
2019-05-23T02:41:01.100Z,147.4
2019-05-23T02:42:01.247Z,164.9
2019-05-23T02:43:01.117Z,184.7
2019-05-23T02:44:06.102Z,207.5
2019-05-23T02:45:01.260Z,234.3
2019-05-23T02:46:01.112Z,265.7
2019-05-23T02:47:01.106Z,302.1
2019-05-23T02:48:01.101Z,343.2
2019-05-23T02:49:06.114Z,388.8
2019-05-23T02:50:01.319Z,438.5
2019-05-23T02:51:01.109Z,492.7
2019-05-23T02:52:01.120Z,551.7
2019-05-23T02:53:01.111Z,615.7
2019-05-23T02:54:06.108Z,684.5
2019-05-23T02:55:01.254Z,758.1
2019-05-23T02:56:01.079Z,835.5
2019-05-23T02:57:01.110Z,915.3
2019-05-23T02:58:01.084Z,996.5
2019-05-23T02:59:06.108Z,1078.5
2019-05-23T03:00:01.383Z,1161.0
2019-05-23T03:01:01.078Z,1244.8
2019-05-23T03:02:01.106Z,1330.2
2019-05-23T03:03:01.104Z,1417.5
2019-05-23T03:04:06.111Z,1506.9
2019-05-23T03:05:01.263Z,1598.9
2019-05-23T03:06:01.107Z,1693.7
2019-05-23T03:07:01.106Z,1791.7
2019-05-23T03:08:01.107Z,1893.8
2019-05-23T03:09:06.114Z,2000.7
2019-05-23T03:10:01.320Z,2112.8
2019-05-23T03:11:01.117Z,2230.2
2019-05-23T03:12:01.103Z,2353.5
2019-05-23T03:13:01.110Z,2482.7
2019-05-23T03:15:01.240Z,2627.7
2019-05-23T03:16:01.096Z,2777.8
2019-05-23T03:17:01.102Z,2931.7
2019-05-23T03:18:01.092Z,3089.3
2019-05-23T03:19:01.091Z,3250.7
2019-05-23T03:20:01.257Z,3415.8
2019-05-23T03:21:01.108Z,3583.8
2019-05-23T03:22:01.093Z,3753.5
2019-05-23T03:23:01.097Z,3923.3
2019-05-23T03:24:01.097Z,4091.9
2019-05-23T03:25:01.310Z,4259.1
2019-05-23T03:26:01.095Z,4425.3
2019-05-23T03:27:01.096Z,4591.7
2019-05-23T03:28:01.099Z,4758.8
2019-05-23T03:29:01.098Z,4927.8
2019-05-23T03:30:01.250Z,5089.0
2019-05-23T03:31:24.981Z,5253.0
2019-05-23T03:32:01.063Z,5419.7
2019-05-23T03:33:01.227Z,5589.2
2019-05-23T03:34:01.126Z,5761.2
2019-05-23T03:35:02.275Z,5936.7
2019-05-23T03:36:01.101Z,6116.5
2019-05-23T03:37:01.104Z,6301.1
2019-05-23T03:38:01.104Z,6493.1
2019-05-23T03:39:01.106Z,6694.7
2019-05-23T03:40:06.256Z,6905.5
2019-05-23T03:41:01.104Z,7123.1
2019-05-23T03:42:01.097Z,7343.3
2019-05-23T03:43:01.106Z,7564.6
2019-05-23T03:44:01.074Z,7786.1
2019-05-23T03:45:01.300Z,8008.7
2019-05-23T03:46:01.107Z,8232.5
2019-05-23T03:47:01.112Z,8454.7
2019-05-23T03:48:01.109Z,8674.9
2019-05-23T03:49:01.109Z,8894.5
2019-05-23T03:50:01.314Z,9115.1
2019-05-23T03:51:01.111Z,9338.4
2019-05-23T03:52:01.113Z,9566.3
2019-05-23T03:53:01.109Z,9797.5
2019-05-23T03:54:01.193Z,10030.5
2019-05-23T03:55:01.285Z,10266.7
2019-05-23T03:56:01.111Z,10506.7
2019-05-23T03:57:01.083Z,10752.9
2019-05-23T03:58:01.115Z,11005.4
2019-05-23T03:59:01.104Z,11261.3
2019-05-23T04:00:03.399Z,11515.3
2019-05-23T04:01:01.121Z,11776.1
2019-05-23T04:02:06.118Z,12053.1
2019-05-23T04:03:01.112Z,12347.1
2019-05-23T04:04:01.113Z,12657.7
2019-05-23T04:05:01.261Z,12982.4
2019-05-23T04:06:01.106Z,13317.0
2019-05-23T04:07:06.111Z,13664.7
2019-05-23T04:08:01.111Z,14027.0
2019-05-23T04:10:01.244Z,14432.9
2019-05-23T04:11:01.069Z,14852.4
2019-05-23T04:12:01.114Z,15297.0
2019-05-23T04:13:01.095Z,15776.2
2019-05-23T04:14:01.065Z,16303.5
2019-05-23T04:15:01.279Z,16886.8
2019-05-23T04:16:01.094Z,17488.7
2019-05-23T04:17:01.088Z,18099.1
2019-05-23T04:18:01.103Z,18740.9
2019-05-23T04:19:01.114Z,19431.6
2019-05-23T04:20:01.320Z,20179.3
2019-05-23T04:21:01.100Z,20925.3
2019-05-23T04:22:01.118Z,21643.1
2019-05-23T04:23:01.102Z,22372.9
2019-05-23T04:24:01.101Z,23091.8
2019-05-23T04:25:02.270Z,23784.5
2019-05-23T04:26:01.165Z,24544.2
2019-05-23T04:27:01.141Z,25352.9
2019-05-23T04:28:01.111Z,26177.6
2019-05-23T04:29:01.108Z,26901.9
2019-05-23T04:30:01.379Z,27597.7
2019-05-23T04:31:01.076Z,28233.3
2019-05-23T04:32:07.552Z,28812.2
2019-05-23T04:33:01.109Z,29393.5
2019-05-23T04:34:01.079Z,29913.9
2019-05-23T04:35:01.263Z,30411.7
2019-05-23T04:36:01.442Z,30974.1
2019-05-23T04:37:01.129Z,31728.5
2019-05-23T04:38:01.087Z,32522.7
2019-05-23T04:39:01.116Z,33213.9
2019-05-23T04:40:01.255Z,33876.1
2019-05-23T04:41:01.078Z,34497.7
2019-05-23T04:42:06.082Z,35134.1
2019-05-23T04:43:01.113Z,35717.5
2019-05-23T04:44:01.108Z,36337.2
2019-05-23T04:45:01.270Z,36934.4
2019-05-23T04:46:01.110Z,37579.1
2019-05-23T04:47:06.107Z,38288.0
2019-05-23T04:48:01.088Z,38962.4
2019-05-23T04:49:02.763Z,39624.6
2019-05-23T04:50:01.255Z,40284.2
2019-05-23T04:51:01.108Z,41007.5
2019-05-23T04:52:06.120Z,41680.1
2019-05-23T04:53:01.104Z,42511.3
2019-05-23T04:54:01.107Z,43511.5
2019-05-23T04:55:01.258Z,44464.7
2019-05-23T04:56:01.109Z,45394.2
2019-05-23T04:58:04.123Z,46192.3
2019-05-23T04:59:01.098Z,46999.7
2019-05-23T05:00:01.259Z,47777.4
2019-05-23T05:01:01.103Z,48537.1
2019-05-23T05:02:01.226Z,49271.6
2019-05-23T05:03:01.102Z,50009.9
2019-05-23T05:04:01.066Z,50710.3
2019-05-23T05:05:01.278Z,51416.3
2019-05-23T05:06:01.092Z,52065.3
2019-05-23T05:07:01.119Z,52528.3
2019-05-23T05:08:01.096Z,52910.6
2019-05-23T05:09:01.100Z,53101.3
2019-05-23T05:10:01.275Z,53277.6
2019-05-23T05:11:01.073Z,53548.9
2019-05-23T05:12:06.098Z,53847.0
2019-05-23T05:13:01.097Z,54206.9
2019-05-23T05:14:01.100Z,54587.6
2019-05-23T05:15:01.248Z,55053.7
2019-05-23T05:16:01.097Z,55546.0
2019-05-23T05:17:01.098Z,55996.9
2019-05-23T05:18:06.111Z,56468.1
2019-05-23T05:19:01.802Z,57006.0
2019-05-23T05:20:01.254Z,57532.9
2019-05-23T05:21:01.105Z,58120.9
2019-05-23T05:22:01.099Z,58822.1
2019-05-23T05:23:06.141Z,59471.3
2019-05-23T05:24:01.103Z,60059.5
2019-05-23T05:25:02.739Z,60646.4
2019-05-23T05:26:01.099Z,61196.5
2019-05-23T05:27:06.071Z,61713.8
2019-05-23T05:28:01.132Z,62208.9
2019-05-23T05:29:01.105Z,62655.7
2019-05-23T05:30:01.605Z,63044.3
2019-05-23T05:31:01.110Z,63403.9
2019-05-23T05:32:06.090Z,63812.7
2019-05-23T05:33:01.117Z,64160.3
2019-05-23T05:34:01.080Z,64452.2
2019-05-23T05:35:01.262Z,64744.8
2019-05-23T05:36:01.134Z,64971.8
2019-05-23T05:37:06.126Z,65115.1
2019-05-23T05:38:01.911Z,65250.5
2019-05-23T05:39:01.114Z,65395.3
2019-05-23T05:40:01.259Z,65466.3
2019-05-23T05:41:01.077Z,65516.8
2019-05-23T05:42:06.113Z,65535.0
2019-05-23T05:45:01.268Z,65535.0
2019-05-23T06:00:01.258Z,65535.0
2019-05-23T06:15:01.345Z,65535.0
2019-05-23T06:30:01.258Z,65535.0
2019-05-23T06:45:01.393Z,65535.0
2019-05-23T07:00:01.349Z,65535.0
2019-05-23T07:15:01.988Z,65535.0
2019-05-23T07:30:01.293Z,65535.0
2019-05-23T07:45:01.381Z,65535.0
2019-05-23T08:00:01.263Z,65535.0
2019-05-23T08:15:01.357Z,65535.0
2019-05-23T08:30:02.294Z,65535.0
2019-05-23T08:46:01.178Z,65535.0
2019-05-23T09:00:01.337Z,65535.0
2019-05-23T09:15:01.386Z,65535.0
2019-05-23T09:30:01.253Z,65535.0
2019-05-23T09:45:01.255Z,65535.0
2019-05-23T10:00:01.542Z,65535.0
2019-05-23T10:15:01.420Z,65535.0
2019-05-23T10:30:01.118Z,65535.0
2019-05-23T10:45:06.190Z,65535.0
2019-05-23T11:00:01.889Z,65535.0
2019-05-23T11:15:01.332Z,65535.0
2019-05-23T11:30:06.076Z,65535.0
2019-05-23T11:45:06.426Z,65535.0
2019-05-23T12:00:06.108Z,65535.0
2019-05-23T12:15:01.331Z,65535.0
2019-05-23T12:30:01.403Z,65535.0
2019-05-23T12:45:01.260Z,65535.0
2019-05-23T13:00:01.095Z,65535.0
2019-05-23T13:15:01.169Z,65535.0
2019-05-23T13:30:01.109Z,65535.0
2019-05-23T13:45:01.313Z,65535.0
2019-05-23T14:00:01.262Z,65535.0
2019-05-23T14:15:01.311Z,65535.0
2019-05-23T14:30:10.147Z,65535.0
2019-05-23T14:45:01.095Z,65535.0
2019-05-23T15:00:01.132Z,65535.0
2019-05-23T15:15:01.107Z,65535.0
2019-05-23T15:30:01.479Z,65535.0
2019-05-23T15:45:06.125Z,65535.0
2019-05-23T16:00:01.309Z,65535.0
2019-05-23T16:15:01.405Z,65535.0
2019-05-23T16:30:01.167Z,65535.0
2019-05-23T16:45:01.097Z,65535.0
2019-05-23T17:00:01.098Z,65535.0
2019-05-23T17:05:09.610Z,65504.3
2019-05-23T17:06:01.101Z,65346.4
2019-05-23T17:07:01.100Z,65198.7
2019-05-23T17:08:03.912Z,65029.2
2019-05-23T17:09:01.121Z,64890.5
2019-05-23T17:10:08.002Z,64703.0
2019-05-23T17:11:01.107Z,64501.7
2019-05-23T17:12:01.107Z,64321.9
2019-05-23T17:13:01.248Z,64214.9
2019-05-23T17:14:01.102Z,64163.5
2019-05-23T17:15:06.113Z,64055.3
2019-05-23T17:16:02.224Z,63844.1
2019-05-23T17:17:05.337Z,63621.2
2019-05-23T17:18:03.284Z,63209.5
2019-05-23T17:19:01.103Z,62664.7
2019-05-23T17:20:01.174Z,62023.9
2019-05-23T17:21:01.110Z,61432.2
2019-05-23T17:22:01.081Z,60732.9
2019-05-23T17:23:01.244Z,59952.9
2019-05-23T17:24:01.100Z,59113.0
2019-05-23T17:25:01.149Z,58340.3
2019-05-23T17:26:01.107Z,57690.6
2019-05-23T17:28:01.237Z,57298.6
2019-05-23T17:29:01.093Z,56883.1
2019-05-23T17:30:01.083Z,56353.8
2019-05-23T17:31:01.075Z,55763.6
2019-05-23T17:32:01.100Z,55164.7
2019-05-23T17:33:01.244Z,54482.0
2019-05-23T17:34:01.088Z,53920.2
2019-05-23T17:35:01.088Z,53486.7
2019-05-23T17:36:01.796Z,53239.7
2019-05-23T17:37:01.086Z,53161.4
2019-05-23T17:38:01.234Z,53263.3
2019-05-23T17:39:01.088Z,53505.1
2019-05-23T17:40:01.100Z,53746.7
2019-05-23T17:41:01.114Z,53894.7
2019-05-23T17:42:01.089Z,53833.7
2019-05-23T17:43:01.237Z,53450.4
2019-05-23T17:44:01.090Z,53142.3
2019-05-23T17:45:01.105Z,53061.7
2019-05-23T17:46:01.114Z,53254.9
2019-05-23T17:47:01.088Z,53704.7
2019-05-23T17:48:01.241Z,54306.7
2019-05-23T17:49:01.091Z,54909.7
2019-05-23T17:50:01.094Z,55382.9
2019-05-23T17:51:01.109Z,55651.1
2019-05-23T17:52:01.090Z,55678.8
2019-05-23T17:53:01.301Z,55458.1
2019-05-23T17:54:01.060Z,55016.9
2019-05-23T17:55:01.092Z,54416.4
2019-05-23T17:56:01.110Z,53727.3
2019-05-23T17:57:01.085Z,53033.5
2019-05-23T17:58:01.237Z,52325.4
2019-05-23T17:59:01.064Z,51456.1
2019-05-23T18:00:01.127Z,50374.2
2019-05-23T18:01:02.161Z,49081.3
2019-05-23T18:02:01.090Z,47576.6
2019-05-23T18:03:01.252Z,45947.6
2019-05-23T18:04:01.088Z,44321.0
2019-05-23T18:05:01.119Z,42778.3
2019-05-23T18:06:01.090Z,41340.5
2019-05-23T18:07:01.114Z,40015.9
2019-05-23T18:08:01.277Z,38820.5
2019-05-23T18:09:01.098Z,37768.9
2019-05-23T18:10:01.102Z,36868.8
2019-05-23T18:11:01.116Z,36096.3
2019-05-23T18:12:01.100Z,35395.1
2019-05-23T18:13:01.249Z,34722.1
2019-05-23T18:14:01.093Z,34057.1
2019-05-23T18:15:02.264Z,33409.9
2019-05-23T18:16:01.131Z,32793.3
2019-05-23T18:17:01.098Z,32219.3
2019-05-23T18:18:01.247Z,31689.5
2019-05-23T18:19:01.096Z,31197.3
2019-05-23T18:20:01.069Z,30726.4
2019-05-23T18:21:01.100Z,30264.6
2019-05-23T18:22:01.095Z,29810.4
2019-05-23T18:23:01.250Z,29363.8
2019-05-23T18:24:01.106Z,28927.9
2019-05-23T18:25:01.112Z,28500.0
2019-05-23T18:26:01.099Z,28079.6
2019-05-23T18:27:01.097Z,27662.4
2019-05-23T18:28:01.245Z,27244.1
2019-05-23T18:29:01.096Z,26824.2
2019-05-23T18:30:01.104Z,26398.7
2019-05-23T18:31:05.453Z,25965.1
2019-05-23T18:32:01.099Z,25523.4
2019-05-23T18:33:01.247Z,25076.3
2019-05-23T18:34:01.069Z,24628.3
2019-05-23T18:35:01.100Z,24181.6
2019-05-23T18:36:01.122Z,23740.1
2019-05-23T18:37:01.104Z,23301.1
2019-05-23T18:38:01.370Z,22863.5
2019-05-23T18:39:01.101Z,22426.7
2019-05-23T18:40:02.361Z,21993.3
2019-05-23T18:41:04.231Z,21562.2
2019-05-23T18:42:01.099Z,21134.7
2019-05-23T18:43:01.250Z,20711.6
2019-05-23T18:44:01.102Z,20295.5
2019-05-23T18:45:01.076Z,19887.7
2019-05-23T18:46:01.124Z,19489.2
2019-05-23T18:47:01.123Z,19097.0
2019-05-23T18:49:01.083Z,18677.9
2019-05-23T18:50:01.100Z,18257.8
2019-05-23T18:51:01.115Z,17837.0
2019-05-23T18:52:01.084Z,17414.0
2019-05-23T18:53:01.240Z,16989.5
2019-05-23T18:54:01.088Z,16564.8
2019-05-23T18:55:01.090Z,16140.8
2019-05-23T18:56:01.096Z,15716.3
2019-05-23T18:57:01.089Z,15293.8
2019-05-23T18:58:01.245Z,14873.7
2019-05-23T18:59:01.097Z,14456.0
2019-05-23T19:00:01.229Z,14037.7
2019-05-23T19:01:01.121Z,13620.1
2019-05-23T19:02:01.094Z,13204.3
2019-05-23T19:03:01.769Z,12793.1
2019-05-23T19:04:01.093Z,12417.4
2019-05-23T19:05:01.099Z,12049.9
2019-05-23T19:06:01.119Z,11690.3
2019-05-23T19:07:01.094Z,11338.5
2019-05-23T19:08:01.995Z,10993.5
2019-05-23T19:09:01.311Z,10654.3
2019-05-23T19:10:01.098Z,10318.9
2019-05-23T19:11:01.157Z,9987.1
2019-05-23T19:12:01.096Z,9658.4
2019-05-23T19:13:01.284Z,9333.0
2019-05-23T19:14:01.126Z,9011.1
2019-05-23T19:15:01.093Z,8692.4
2019-05-23T19:16:01.101Z,8375.9
2019-05-23T19:17:01.094Z,8060.6
2019-05-23T19:18:01.314Z,7747.4
2019-05-23T19:19:06.105Z,7437.3
2019-05-23T19:20:01.146Z,7131.5
2019-05-23T19:21:01.068Z,6829.4
2019-05-23T19:22:01.064Z,6530.1
2019-05-23T19:23:01.247Z,6234.9
2019-05-23T19:24:06.105Z,5947.3
2019-05-23T19:25:01.104Z,5669.7
2019-05-23T19:26:01.100Z,5402.0
2019-05-23T19:27:01.094Z,5142.7
2019-05-23T19:28:01.250Z,4891.1
2019-05-23T19:29:06.113Z,4647.0
2019-05-23T19:30:01.070Z,4411.4
2019-05-23T19:31:01.096Z,4184.9
2019-05-23T19:32:01.117Z,3967.7
2019-05-23T19:33:01.250Z,3758.7
2019-05-23T19:34:01.134Z,3556.4
2019-05-23T19:35:01.099Z,3360.1
2019-05-23T19:36:01.108Z,3171.0
2019-05-23T19:37:01.102Z,2990.3
2019-05-23T19:38:01.258Z,2817.3
2019-05-23T19:39:01.135Z,2650.3
2019-05-23T19:40:02.177Z,2488.1
2019-05-23T19:42:01.088Z,2323.3
2019-05-23T19:43:01.245Z,2164.9
2019-05-23T19:44:01.070Z,2013.2
2019-05-23T19:45:01.097Z,1867.9
2019-05-23T19:46:01.101Z,1728.9
2019-05-23T19:47:01.104Z,1595.8
2019-05-23T19:48:01.248Z,1468.9
2019-05-23T19:49:01.093Z,1348.4
2019-05-23T19:50:01.092Z,1234.5
2019-05-23T19:51:01.095Z,1127.1
2019-05-23T19:52:01.090Z,1026.1
2019-05-23T19:53:01.262Z,931.6
2019-05-23T19:54:01.095Z,843.3
2019-05-23T19:55:01.119Z,761.2
2019-05-23T19:56:01.096Z,684.9
2019-05-23T19:57:01.067Z,621.8
2019-05-23T19:58:01.302Z,563.5
2019-05-23T19:59:01.092Z,509.8
2019-05-23T20:00:01.119Z,460.6
2019-05-23T20:01:02.499Z,415.6
2019-05-23T20:02:01.093Z,374.5
2019-05-23T20:03:03.819Z,337.1
2019-05-23T20:04:01.106Z,303.1
2019-05-23T20:05:06.109Z,272.2
2019-05-23T20:06:01.102Z,244.3
2019-05-23T20:07:01.099Z,218.9
2019-05-23T20:08:01.447Z,196.0
2019-05-23T20:09:01.106Z,175.4
2019-05-23T20:10:06.110Z,156.9
2019-05-23T20:11:01.106Z,140.2
2019-05-23T20:12:01.111Z,125.2
2019-05-23T20:13:01.254Z,111.7
2019-05-23T20:14:01.105Z,99.7
2019-05-23T20:15:06.111Z,88.9
2019-05-23T20:16:01.106Z,79.3
2019-05-23T20:17:01.110Z,70.8
2019-05-23T20:18:01.931Z,63.2
2019-05-23T20:19:06.102Z,56.4
2019-05-23T20:20:01.095Z,50.4
2019-05-23T20:21:01.071Z,45.1
2019-05-23T20:22:01.109Z,40.3
2019-05-23T20:23:01.321Z,36.1
2019-05-23T20:24:06.079Z,32.3
2019-05-23T20:25:01.110Z,28.9
2019-05-23T20:26:01.099Z,25.9
2019-05-23T20:27:01.116Z,23.3
2019-05-23T20:28:01.261Z,20.9
2019-05-23T20:29:03.229Z,18.7
2019-05-23T20:30:01.112Z,16.8
2019-05-23T20:31:01.074Z,15.1
2019-05-23T20:32:01.079Z,13.5
2019-05-23T20:33:03.369Z,12.1
2019-05-23T20:34:01.138Z,10.8
2019-05-23T20:35:01.106Z,9.7
2019-05-23T20:36:01.081Z,8.7
2019-05-23T20:38:01.237Z,7.7
2019-05-23T20:39:01.093Z,6.9
2019-05-23T20:40:01.278Z,6.2
2019-05-23T20:41:01.113Z,5.5
2019-05-23T20:42:10.624Z,4.9
2019-05-23T20:43:02.597Z,4.4
2019-05-23T20:44:01.098Z,3.9
2019-05-23T20:45:01.120Z,3.5
2019-05-23T20:46:01.090Z,3.1
2019-05-23T20:47:01.093Z,2.7
2019-05-23T20:48:01.263Z,2.5
2019-05-23T20:49:01.138Z,2.2
2019-05-23T20:50:06.106Z,2.0
2019-05-23T20:51:01.098Z,1.8
2019-05-23T20:52:01.100Z,1.6
2019-05-23T20:53:01.264Z,1.5
2019-05-23T20:54:06.105Z,1.3
2019-05-23T20:56:01.096Z,1.2
2019-05-23T20:57:01.130Z,1.1
2019-05-23T20:58:01.261Z,0.9
2019-05-23T20:59:06.111Z,0.8
2019-05-23T21:00:02.177Z,0.7
2019-05-23T21:02:06.114Z,0.6
2019-05-23T21:03:01.243Z,0.5
2019-05-23T21:05:01.103Z,0.4
2019-05-23T21:06:01.198Z,0.3
2019-05-23T21:08:01.298Z,0.2
2019-05-23T21:09:06.114Z,0.1
